createdAt,value
2023-05-02T00:00:05.804Z,58.76
2023-05-02T00:03:33.807Z,59.36
2023-05-02T00:06:42.779Z,59.14
2023-05-02T00:10:10.638Z,59.82
2023-05-02T00:13:38.557Z,59.73
2023-05-02T00:17:06.695Z,60.03
2023-05-02T00:20:34.941Z,60.01
2023-05-02T00:24:02.804Z,60.38
2023-05-02T00:27:30.759Z,60.92
2023-05-02T00:30:58.759Z,61.01
2023-05-02T00:34:26.680Z,60.83
2023-05-02T00:37:54.655Z,61.12
2023-05-02T00:41:03.612Z,61.87
2023-05-02T00:44:31.721Z,61.89
2023-05-02T00:47:59.854Z,61.43
2023-05-02T00:51:28.009Z,61.07
2023-05-02T00:54:55.769Z,61.16
2023-05-02T00:58:04.706Z,62.35
2023-05-02T01:01:32.795Z,62.37
2023-05-02T01:05:00.630Z,62.27
2023-05-02T01:08:28.703Z,63.42
2023-05-02T01:11:56.653Z,63.78
2023-05-02T01:15:24.925Z,63.84
2023-05-02T01:18:14.015Z,64.19
2023-05-02T01:21:24.035Z,64.20
2023-05-02T01:24:52.065Z,64.91
2023-05-02T01:28:20.129Z,64.63
2023-05-02T01:31:48.071Z,64.80
2023-05-02T01:35:16.242Z,64.91
2023-05-02T01:38:44.184Z,64.78
2023-05-02T01:42:12.055Z,66.07
2023-05-02T01:45:39.977Z,65.38
2023-05-02T01:49:08.089Z,66.91
2023-05-02T01:52:36.361Z,66.55
2023-05-02T01:56:04.325Z,67.53
2023-05-02T01:59:32.361Z,66.87
2023-05-02T02:03:00.254Z,66.16
2023-05-02T02:06:28.125Z,67.13
2023-05-02T02:09:56.054Z,66.27
2023-05-02T02:13:24.045Z,66.33
2023-05-02T02:16:52.292Z,66.52
2023-05-02T02:20:20.479Z,67.26
2023-05-02T02:23:29.884Z,67.60
2023-05-02T02:26:57.938Z,67.46
2023-05-02T02:30:25.811Z,68.18
2023-05-02T02:33:53.651Z,67.85
2023-05-02T02:37:21.856Z,67.58
2023-05-02T02:40:49.987Z,67.36
2023-05-02T02:44:18.106Z,67.83
2023-05-02T02:47:28.983Z,66.29
2023-05-02T02:50:57.417Z,66.06
2023-05-02T02:54:27.307Z,66.14
2023-05-02T02:57:37.423Z,67.01
2023-05-02T03:01:05.355Z,68.57
2023-05-02T03:04:15.077Z,69.00
2023-05-02T03:07:43.263Z,69.97
2023-05-02T03:11:11.292Z,68.90
2023-05-02T03:14:39.058Z,69.87
2023-05-02T03:18:07.016Z,69.83
2023-05-02T03:21:16.001Z,69.78
2023-05-02T03:24:43.787Z,70.13
2023-05-02T03:28:11.762Z,70.12
2023-05-02T03:31:39.863Z,70.10
2023-05-02T03:35:07.718Z,70.37
2023-05-02T03:38:35.569Z,70.56
2023-05-02T03:42:03.672Z,71.05
2023-05-02T03:45:32.206Z,70.75
2023-05-02T03:49:00.502Z,70.04
2023-05-02T03:52:28.771Z,69.91
2023-05-02T03:55:56.705Z,69.81
2023-05-02T03:59:24.758Z,69.27
2023-05-02T04:02:52.849Z,69.06
2023-05-02T04:06:20.557Z,69.05
2023-05-02T04:09:49.646Z,68.25
2023-05-02T04:13:17.811Z,67.95
2023-05-02T04:16:45.804Z,67.46
2023-05-02T04:20:21.747Z,67.25
2023-05-02T04:23:49.736Z,66.88
2023-05-02T04:27:17.564Z,66.42
2023-05-02T04:30:45.716Z,66.17
2023-05-02T04:34:15.611Z,65.79
2023-05-02T04:37:45.781Z,65.18
2023-05-02T04:41:13.517Z,64.83
2023-05-02T04:44:42.877Z,64.19
2023-05-02T04:47:52.472Z,63.88
2023-05-02T04:51:25.468Z,63.45
2023-05-02T04:54:34.903Z,63.00
2023-05-02T04:58:03.277Z,63.09
2023-05-02T05:01:31.362Z,62.72
2023-05-02T05:04:59.454Z,61.66
2023-05-02T05:08:27.447Z,61.38
2023-05-02T05:11:55.272Z,60.96
2023-05-02T05:15:23.383Z,60.26
2023-05-02T05:18:51.874Z,59.53
2023-05-02T05:22:20.008Z,59.72
2023-05-02T05:25:28.950Z,59.36
2023-05-02T05:28:56.746Z,58.40
2023-05-02T05:32:00.817Z,58.00
2023-05-02T05:35:28.551Z,58.11
2023-05-02T05:38:56.551Z,57.59
2023-05-02T05:42:24.567Z,56.57
2023-05-02T05:45:52.452Z,56.36
2023-05-02T05:49:20.554Z,55.82
2023-05-02T05:52:30.488Z,56.00
2023-05-02T05:55:58.629Z,55.99
2023-05-02T05:59:15.155Z,55.74
2023-05-02T06:02:43.262Z,55.85
2023-05-02T06:06:10.901Z,55.99
2023-05-02T06:09:39.016Z,55.67
2023-05-02T06:12:49.469Z,55.54
2023-05-02T06:16:17.480Z,55.73
2023-05-02T06:19:06.261Z,55.53
2023-05-02T06:22:34.201Z,55.50
2023-05-02T06:25:23.441Z,55.39
2023-05-02T06:27:53.164Z,55.23
2023-05-02T06:31:01.573Z,55.14
2023-05-02T06:34:29.554Z,55.18
2023-05-02T06:37:26.435Z,55.30
2023-05-02T06:40:34.646Z,54.64
2023-05-02T06:43:23.398Z,54.43
2023-05-02T06:46:48.313Z,54.01
2023-05-02T06:49:38.860Z,53.27
2023-05-02T06:52:43.891Z,53.10
2023-05-02T06:55:49.485Z,52.66
2023-05-02T06:59:14.255Z,52.65
2023-05-02T07:02:34.365Z,51.85
2023-05-02T07:05:54.583Z,51.94
2023-05-02T07:09:18.829Z,51.35
2023-05-02T07:12:43.372Z,51.19
2023-05-02T07:15:40.059Z,47.96
2023-05-02T07:18:08.769Z,45.14
2023-05-02T07:21:06.528Z,42.54
2023-05-02T07:24:12.873Z,40.14
2023-05-02T07:27:41.430Z,40.44
2023-05-02T07:30:49.515Z,40.08
2023-05-02T07:33:18.984Z,40.31
2023-05-02T07:36:12.923Z,39.15
2023-05-02T07:39:20.943Z,38.82
2023-05-02T07:42:10.005Z,37.47
2023-05-02T07:45:26.419Z,36.81
2023-05-02T07:48:17.371Z,36.38
2023-05-02T07:51:45.062Z,36.44
2023-05-02T07:54:54.919Z,37.26
2023-05-02T07:58:25.940Z,36.46
2023-05-02T08:01:54.016Z,35.77
2023-05-02T08:04:22.892Z,35.25
2023-05-02T08:07:50.691Z,35.73
2023-05-02T08:11:00.513Z,35.97
2023-05-02T08:14:29.349Z,35.75
2023-05-02T08:17:20.718Z,35.65
2023-05-02T08:20:29.847Z,34.59
2023-05-02T08:23:57.824Z,34.20
2023-05-02T08:26:44.713Z,34.29
2023-05-02T08:29:53.850Z,35.03
2023-05-02T08:33:21.962Z,34.08
2023-05-02T08:36:50.215Z,33.78
2023-05-02T08:40:24.661Z,33.56
2023-05-02T08:43:46.527Z,33.49
2023-05-02T08:46:54.936Z,32.80
2023-05-02T08:50:23.756Z,32.43
2023-05-02T08:53:51.631Z,33.01
2023-05-02T08:57:19.726Z,32.46
2023-05-02T09:00:47.634Z,32.51
2023-05-02T09:04:15.677Z,32.75
2023-05-02T09:07:31.492Z,33.25
2023-05-02T09:10:59.594Z,32.45
2023-05-02T09:13:49.188Z,32.22
2023-05-02T09:17:19.679Z,32.25
2023-05-02T09:20:28.380Z,31.99
2023-05-02T09:23:36.532Z,30.95
2023-05-02T09:26:52.217Z,30.79
2023-05-02T09:30:00.485Z,30.82
2023-05-02T09:32:49.707Z,30.64
2023-05-02T09:35:59.005Z,30.91
2023-05-02T09:39:26.955Z,30.89
2023-05-02T09:42:54.794Z,31.19
2023-05-02T09:46:03.740Z,30.54
2023-05-02T09:49:31.677Z,30.89
2023-05-02T09:52:40.109Z,30.53
2023-05-02T09:55:49.112Z,29.92
2023-05-02T09:59:16.867Z,29.74
2023-05-02T10:02:44.624Z,29.95
2023-05-02T10:06:12.673Z,30.60
2023-05-02T10:09:40.533Z,29.93
2023-05-02T10:13:08.546Z,29.05
2023-05-02T10:16:36.559Z,28.57
2023-05-02T10:20:05.416Z,28.43
2023-05-02T10:23:14.398Z,28.86
2023-05-02T10:26:24.229Z,28.86
2023-05-02T10:29:52.233Z,28.89
2023-05-02T10:32:41.521Z,29.29
2023-05-02T10:35:51.124Z,29.32
2023-05-02T10:39:19.053Z,28.77
2023-05-02T10:42:28.130Z,28.23
2023-05-02T10:45:56.035Z,28.38
2023-05-02T10:49:23.784Z,27.98
2023-05-02T10:52:51.586Z,27.62
2023-05-02T10:56:19.561Z,26.73
2023-05-02T10:59:47.356Z,27.44
2023-05-02T11:02:56.364Z,26.22
2023-05-02T11:05:53.444Z,26.53
2023-05-02T11:09:21.354Z,26.67
2023-05-02T11:12:49.325Z,26.24
2023-05-02T11:16:17.383Z,26.12
2023-05-02T11:19:26.296Z,25.99
2023-05-02T11:22:15.201Z,26.17
2023-05-02T11:25:43.050Z,25.73
2023-05-02T11:29:11.421Z,26.44
2023-05-02T11:32:39.458Z,26.41
2023-05-02T11:35:48.327Z,26.41
2023-05-02T11:39:16.239Z,26.38
2023-05-02T11:42:44.121Z,26.97
2023-05-02T11:46:12.108Z,26.33
2023-05-02T11:49:40.226Z,26.49
2023-05-02T11:53:08.118Z,26.28
2023-05-02T11:56:16.407Z,26.97
2023-05-02T11:59:44.182Z,27.17
2023-05-02T12:02:53.971Z,27.37
2023-05-02T12:05:42.481Z,26.79
2023-05-02T12:09:10.659Z,26.21
2023-05-02T12:12:19.053Z,24.70
2023-05-02T12:15:27.498Z,24.01
2023-05-02T12:18:55.505Z,24.17
2023-05-02T12:22:23.441Z,22.83
2023-05-02T12:25:51.328Z,23.25
2023-05-02T12:29:19.183Z,22.44
2023-05-02T12:32:47.771Z,22.31
2023-05-02T12:36:15.799Z,22.60
2023-05-02T12:39:43.718Z,22.36
2023-05-02T12:43:11.732Z,21.88
2023-05-02T12:46:39.611Z,21.86
2023-05-02T12:49:48.960Z,22.41
2023-05-02T12:53:18.627Z,21.44
2023-05-02T12:56:08.454Z,21.51
2023-05-02T12:59:36.228Z,21.45
2023-05-02T13:03:04.434Z,21.08
2023-05-02T13:06:28.009Z,21.67
2023-05-02T13:09:55.927Z,20.61
2023-05-02T13:12:53.428Z,20.49
2023-05-02T13:15:41.937Z,20.39
2023-05-02T13:19:10.086Z,19.93
2023-05-02T13:22:38.223Z,19.52
2023-05-02T13:26:06.160Z,19.48
2023-05-02T13:29:33.770Z,19.48
2023-05-02T13:33:01.722Z,19.41
2023-05-02T13:36:29.394Z,19.10
2023-05-02T13:39:57.449Z,18.81
2023-05-02T13:43:25.478Z,19.01
2023-05-02T13:46:15.530Z,18.66
2023-05-02T13:49:23.715Z,18.37
2023-05-02T13:52:32.719Z,17.70
2023-05-02T13:56:00.537Z,17.93
2023-05-02T13:59:10.255Z,17.99
2023-05-02T14:01:59.352Z,17.60
2023-05-02T14:05:15.516Z,18.13
2023-05-02T14:08:43.334Z,18.33
2023-05-02T14:12:11.415Z,17.66
2023-05-02T14:15:19.636Z,17.74
2023-05-02T14:18:47.649Z,17.73
2023-05-02T14:21:35.665Z,17.60
2023-05-02T14:24:44.847Z,17.73
2023-05-02T14:27:36.804Z,17.50
2023-05-02T14:31:06.456Z,17.33
2023-05-02T14:34:15.298Z,17.78
2023-05-02T14:37:12.270Z,17.97
2023-05-02T14:40:02.433Z,18.30
2023-05-02T14:43:30.422Z,17.64
2023-05-02T14:46:41.412Z,17.55
2023-05-02T14:49:11.206Z,17.53
2023-05-02T14:52:00.769Z,17.70
2023-05-02T14:55:24.560Z,17.85
2023-05-02T14:58:16.913Z,18.02
2023-05-02T15:01:08.901Z,17.94
2023-05-02T15:04:37.099Z,18.01
2023-05-02T15:08:05.449Z,18.37
2023-05-02T15:10:54.208Z,18.56
2023-05-02T15:14:18.344Z,18.83
2023-05-02T15:17:27.733Z,18.98
2023-05-02T15:20:56.151Z,19.36
2023-05-02T15:23:53.972Z,19.37
2023-05-02T15:27:21.961Z,19.68
2023-05-02T15:30:49.966Z,19.52
2023-05-02T15:34:17.863Z,19.41
2023-05-02T15:37:19.012Z,19.70
2023-05-02T15:40:47.234Z,20.14
2023-05-02T15:44:15.297Z,20.73
2023-05-02T15:47:04.229Z,20.15
2023-05-02T15:50:13.345Z,20.02
2023-05-02T15:53:22.196Z,19.44
2023-05-02T15:56:50.478Z,19.09
2023-05-02T16:00:18.602Z,19.31
2023-05-02T16:03:12.133Z,19.30
2023-05-02T16:05:43.272Z,19.46
2023-05-02T16:08:55.524Z,19.43
2023-05-02T16:12:23.921Z,19.63
2023-05-02T16:15:32.800Z,19.66
2023-05-02T16:19:00.820Z,20.34
2023-05-02T16:22:29.103Z,21.40
2023-05-02T16:25:57.855Z,21.99
2023-05-02T16:29:25.882Z,22.68
2023-05-02T16:32:54.110Z,23.32
2023-05-02T16:36:02.254Z,24.13
2023-05-02T16:39:30.219Z,24.52
2023-05-02T16:42:58.294Z,25.57
2023-05-02T16:45:48.081Z,26.74
2023-05-02T16:48:17.739Z,26.22
2023-05-02T16:51:24.025Z,27.60
2023-05-02T16:53:53.765Z,28.05
2023-05-02T16:56:43.153Z,28.48
2023-05-02T16:59:32.469Z,28.36
2023-05-02T17:02:22.710Z,29.32
2023-05-02T17:05:13.601Z,30.41
2023-05-02T17:08:02.488Z,30.08
2023-05-02T17:11:13.741Z,30.59
2023-05-02T17:14:25.948Z,30.71
2023-05-02T17:17:34.611Z,32.22
2023-05-02T17:20:23.005Z,32.11
2023-05-02T17:23:27.231Z,32.20
2023-05-02T17:26:06.864Z,32.30
2023-05-02T17:28:50.294Z,30.96
2023-05-02T17:31:23.691Z,32.23
2023-05-02T17:34:51.786Z,32.90
2023-05-02T17:38:01.958Z,33.15
2023-05-02T17:40:50.197Z,32.58
2023-05-02T17:43:21.281Z,32.90
2023-05-02T17:46:31.099Z,34.69
2023-05-02T17:49:58.967Z,34.56
2023-05-02T17:52:47.872Z,35.48
2023-05-02T17:55:31.669Z,35.36
2023-05-02T17:58:41.585Z,35.23
2023-05-02T18:01:16.036Z,35.32
2023-05-02T18:04:39.930Z,34.80
2023-05-02T18:07:11.789Z,35.97
2023-05-02T18:10:14.004Z,35.54
2023-05-02T18:13:02.978Z,37.22
2023-05-02T18:15:59.033Z,37.40
2023-05-02T18:19:27.297Z,37.41
2023-05-02T18:22:19.200Z,37.55
2023-05-02T18:24:48.764Z,38.07
2023-05-02T18:28:16.651Z,37.20
2023-05-02T18:31:44.412Z,37.06
2023-05-02T18:34:38.468Z,37.09
2023-05-02T18:38:04.142Z,37.41
2023-05-02T18:41:31.940Z,38.14
2023-05-02T18:44:41.007Z,39.01
2023-05-02T18:47:49.551Z,38.82
2023-05-02T18:50:38.669Z,38.23
2023-05-02T18:54:07.108Z,37.96
2023-05-02T18:57:23.336Z,37.79
2023-05-02T19:00:31.260Z,37.48
2023-05-02T19:03:44.596Z,37.12
2023-05-02T19:07:19.488Z,36.64
2023-05-02T19:10:48.394Z,36.10
2023-05-02T19:14:16.409Z,36.17
2023-05-02T19:17:50.071Z,36.24
2023-05-02T19:21:17.895Z,36.42
2023-05-02T19:24:45.949Z,36.35
2023-05-02T19:27:55.809Z,36.32
2023-05-02T19:31:23.715Z,36.11
2023-05-02T19:34:32.850Z,35.96
2023-05-02T19:38:00.802Z,35.72
2023-05-02T19:41:11.530Z,35.47
2023-05-02T19:44:39.397Z,35.61
2023-05-02T19:48:02.897Z,35.55
2023-05-02T19:50:34.409Z,35.81
2023-05-02T19:53:22.792Z,35.93
2023-05-02T19:55:55.254Z,36.15
2023-05-02T19:58:43.786Z,36.91
2023-05-02T20:02:11.817Z,37.19
2023-05-02T20:05:39.921Z,37.42
2023-05-02T20:08:48.684Z,37.66
2023-05-02T20:11:38.445Z,37.56
2023-05-02T20:15:06.367Z,38.02
2023-05-02T20:18:16.446Z,38.38
2023-05-02T20:21:44.056Z,39.17
2023-05-02T20:25:11.972Z,39.87
2023-05-02T20:28:39.928Z,39.48
2023-05-02T20:31:27.922Z,39.93
2023-05-02T20:34:15.881Z,40.82
2023-05-02T20:37:04.971Z,41.31
2023-05-02T20:40:33.724Z,41.67
2023-05-02T20:43:23.651Z,41.28
2023-05-02T20:46:29.399Z,41.16
2023-05-02T20:49:57.298Z,41.10
2023-05-02T20:53:07.567Z,40.87
2023-05-02T20:56:35.856Z,40.11
2023-05-02T21:00:04.679Z,41.73
2023-05-02T21:03:32.655Z,41.03
2023-05-02T21:07:00.631Z,41.10
2023-05-02T21:10:32.778Z,40.95
2023-05-02T21:14:01.033Z,41.35
2023-05-02T21:17:33.081Z,41.38
2023-05-02T21:21:04.275Z,40.50
2023-05-02T21:24:32.882Z,40.08
2023-05-02T21:27:43.876Z,41.07
2023-05-02T21:30:53.239Z,41.10
2023-05-02T21:34:21.455Z,40.84
2023-05-02T21:37:49.625Z,41.44
2023-05-02T21:41:17.710Z,41.97
2023-05-02T21:44:25.999Z,42.46
2023-05-02T21:47:53.778Z,41.41
2023-05-02T21:51:24.512Z,42.24
2023-05-02T21:54:52.641Z,42.62
2023-05-02T21:58:21.078Z,42.44
2023-05-02T22:01:48.993Z,43.63
2023-05-02T22:05:16.761Z,43.69
2023-05-02T22:08:44.756Z,43.29
2023-05-02T22:12:12.661Z,44.36
2023-05-02T22:15:40.671Z,44.51
2023-05-02T22:19:08.453Z,45.59
2023-05-02T22:22:36.507Z,45.84
2023-05-02T22:26:04.522Z,46.61
2023-05-02T22:29:32.509Z,46.66
2023-05-02T22:33:00.409Z,47.03
2023-05-02T22:36:28.008Z,47.60
2023-05-02T22:39:37.054Z,48.20
2023-05-02T22:43:05.012Z,48.04
2023-05-02T22:46:13.757Z,47.91
2023-05-02T22:49:41.766Z,48.03
2023-05-02T22:53:09.585Z,48.35
2023-05-02T22:56:37.894Z,48.43
2023-05-02T23:00:05.989Z,48.79
2023-05-02T23:03:33.619Z,48.70
2023-05-02T23:07:01.318Z,49.10
2023-05-02T23:10:29.390Z,49.08
2023-05-02T23:13:57.211Z,48.37
2023-05-02T23:17:05.639Z,48.98
2023-05-02T23:20:33.343Z,49.44
2023-05-02T23:24:01.327Z,48.34
2023-05-02T23:27:09.742Z,48.24
2023-05-02T23:30:19.874Z,48.12
2023-05-02T23:33:28.538Z,48.36
2023-05-02T23:36:56.402Z,48.54
2023-05-02T23:40:05.459Z,48.43
2023-05-02T23:43:33.506Z,48.37
2023-05-02T23:47:01.462Z,48.65
2023-05-02T23:50:29.228Z,48.63
2023-05-02T23:53:57.278Z,48.27
2023-05-02T23:57:25.461Z,47.75
